Time;durP1;ratioP1;P1;durP2;ratioP2;P2;SDS_P1;SDS_P2;PMS_P1;PMS_P2;Temp;Humidity;BMP_temperature;BMP_pressure;BME280_temperature;BME280_humidity;BME280_pressure;Samples;Min_cycle;Max_cycle;Signal;HPM_P1;HPM_P2
2022/08/26 00:00:29;;;;;;;27.52;15.45;;;;;;;;;;5077259;28;20044;-69
2022/08/26 00:02:55;;;;;;;33.00;17.17;;;;;;;;;;5075759;28;20063;-68
2022/08/26 00:05:21;;;;;;;25.88;15.30;;;;;;;;;;5078017;28;20048;-69
2022/08/26 00:07:48;;;;;;;29.35;16.17;;;;;;;;;;5074762;28;20487;-69
2022/08/26 00:10:14;;;;;;;26.67;15.63;;;;;;;;;;5081432;28;20051;-68
2022/08/26 00:12:41;;;;;;;29.25;15.18;;;;;;;;;;5081498;28;20048;-68
2022/08/26 00:15:09;;;;;;;26.23;16.15;;;;;;;;;;5081211;28;20054;-69
2022/08/26 00:17:35;;;;;;;31.08;15.75;;;;;;;;;;5078811;28;20048;-68
2022/08/26 00:20:02;;;;;;;25.60;13.30;;;;;;;;;;5083540;28;20348;-69
2022/08/26 00:22:28;;;;;;;19.88;12.50;;;;;;;;;;5077107;28;20048;-68
2022/08/26 00:24:54;;;;;;;24.13;12.63;;;;;;;;;;5077155;28;20047;-68
2022/08/26 00:27:20;;;;;;;21.20;10.57;;;;;;;;;;5082454;28;20039;-68
2022/08/26 00:29:46;;;;;;;27.27;10.20;;;;;;;;;;5079411;28;20048;-68
2022/08/26 00:32:13;;;;;;;28.88;11.10;;;;;;;;;;5074594;28;21318;-68
2022/08/26 00:34:39;;;;;;;21.30;9.57;;;;;;;;;;5081322;28;20040;-68
2022/08/26 00:37:05;;;;;;;21.38;9.88;;;;;;;;;;5074771;28;20671;-69
2022/08/26 00:39:31;;;;;;;19.27;9.05;;;;;;;;;;5074929;28;20534;-69
2022/08/26 00:41:57;;;;;;;21.45;9.93;;;;;;;;;;5077506;28;20055;-68
2022/08/26 00:44:24;;;;;;;24.52;8.80;;;;;;;;;;5096301;28;20039;-68
2022/08/26 00:46:52;;;;;;;23.00;9.25;;;;;;;;;;5079781;28;20046;-68
2022/08/26 00:49:24;;;;;;;22.48;8.70;;;;;;;;;;5081303;28;20039;-68
2022/08/26 00:51:53;;;;;;;21.30;9.50;;;;;;;;;;5081841;28;20050;-69
2022/08/26 00:54:20;;;;;;;20.27;8.90;;;;;;;;;;5086891;28;20044;-68
2022/08/26 00:56:58;;;;;;;21.05;9.23;;;;;;;;;;5077636;28;20043;-68
2022/08/26 00:59:25;;;;;;;26.30;9.43;;;;;;;;;;5082767;28;20535;-68
2022/08/26 01:01:52;;;;;;;23.10;9.38;;;;;;;;;;5064711;28;20060;-68
2022/08/26 01:04:19;;;;;;;19.90;8.82;;;;;;;;;;5082894;28;20044;-68
2022/08/26 01:06:47;;;;;;;21.60;8.57;;;;;;;;;;5080366;28;20040;-68
2022/08/26 01:09:13;;;;;;;23.08;9.45;;;;;;;;;;5084115;28;20069;-69
2022/08/26 01:11:40;;;;;;;23.10;10.15;;;;;;;;;;5080461;28;21510;-68
2022/08/26 01:14:07;;;;;;;26.42;9.60;;;;;;;;;;5082539;28;20044;-69
2022/08/26 01:16:34;;;;;;;24.23;9.35;;;;;;;;;;5079609;28;20067;-69
2022/08/26 01:19:04;;;;;;;17.10;8.23;;;;;;;;;;5089435;28;20074;-69
2022/08/26 01:21:37;;;;;;;23.65;8.75;;;;;;;;;;5083060;28;20159;-69
2022/08/26 01:24:04;;;;;;;17.90;7.07;;;;;;;;;;5080922;28;20075;-68
2022/08/26 01:26:32;;;;;;;19.50;8.05;;;;;;;;;;5083759;28;21263;-69
2022/08/26 01:29:01;;;;;;;18.85;7.22;;;;;;;;;;5088207;28;20121;-68
2022/08/26 01:31:30;;;;;;;15.48;6.90;;;;;;;;;;5086045;28;20467;-68
2022/08/26 01:34:01;;;;;;;19.00;6.72;;;;;;;;;;5085190;28;20350;-69
2022/08/26 01:36:27;;;;;;;16.70;6.80;;;;;;;;;;5080676;28;20418;-69
2022/08/26 01:38:53;;;;;;;18.35;6.25;;;;;;;;;;5078872;28;20054;-68
2022/08/26 01:41:21;;;;;;;16.13;6.00;;;;;;;;;;5081646;28;20032;-69
2022/08/26 01:43:50;;;;;;;21.13;7.03;;;;;;;;;;5078547;28;20044;-69
2022/08/26 01:46:16;;;;;;;18.00;5.88;;;;;;;;;;5083218;28;20457;-69
2022/08/26 01:48:44;;;;;;;17.70;5.60;;;;;;;;;;5083705;28;20475;-68
2022/08/26 01:51:11;;;;;;;17.15;5.82;;;;;;;;;;5085425;28;20048;-69
2022/08/26 01:53:38;;;;;;;20.73;5.63;;;;;;;;;;5083203;28;20453;-69
2022/08/26 01:56:05;;;;;;;17.25;4.85;;;;;;;;;;5083161;28;20043;-69
2022/08/26 01:58:34;;;;;;;19.27;4.88;;;;;;;;;;5083980;28;20055;-69
2022/08/26 02:01:01;;;;;;;20.38;4.72;;;;;;;;;;5083991;28;20131;-68
2022/08/26 02:03:27;;;;;;;12.73;4.03;;;;;;;;;;5098098;27;20043;-68
2022/08/26 02:05:55;;;;;;;16.00;4.20;;;;;;;;;;5086543;28;20459;-69
2022/08/26 02:08:25;;;;;;;14.80;4.30;;;;;;;;;;5084956;28;20044;-68
2022/08/26 02:10:52;;;;;;;12.25;4.20;;;;;;;;;;5085696;28;20046;-69
2022/08/26 02:13:18;;;;;;;14.50;4.43;;;;;;;;;;5073944;28;20055;-68
2022/08/26 02:15:44;;;;;;;15.70;5.68;;;;;;;;;;5083014;28;20499;-68
2022/08/26 02:18:11;;;;;;;16.15;5.15;;;;;;;;;;5083442;28;20080;-68
2022/08/26 02:20:37;;;;;;;14.20;4.78;;;;;;;;;;5087958;28;20093;-68
2022/08/26 02:23:04;;;;;;;17.98;5.85;;;;;;;;;;5086870;28;20119;-68
2022/08/26 02:25:30;;;;;;;12.93;4.18;;;;;;;;;;5086961;28;20052;-69
2022/08/26 02:27:56;;;;;;;15.63;5.10;;;;;;;;;;5085203;28;20489;-69
2022/08/26 02:30:24;;;;;;;15.50;4.85;;;;;;;;;;5081344;28;20036;-69
2022/08/26 02:32:50;;;;;;;13.70;4.25;;;;;;;;;;5081995;28;20035;-69
2022/08/26 02:35:19;;;;;;;15.35;4.32;;;;;;;;;;5100995;27;20235;-69
2022/08/26 02:37:45;;;;;;;15.45;4.10;;;;;;;;;;5084423;28;20102;-69
2022/08/26 02:40:13;;;;;;;14.30;4.30;;;;;;;;;;5078940;28;20039;-68
2022/08/26 02:42:39;;;;;;;15.82;4.13;;;;;;;;;;5069242;28;20043;-68
2022/08/26 02:45:06;;;;;;;15.75;3.08;;;;;;;;;;5086370;28;20040;-69
2022/08/26 02:47:33;;;;;;;15.40;3.20;;;;;;;;;;5081937;28;20040;-68
2022/08/26 02:49:59;;;;;;;16.95;3.08;;;;;;;;;;5088356;28;20401;-68
2022/08/26 02:52:25;;;;;;;14.77;2.67;;;;;;;;;;5086955;28;20069;-68
2022/08/26 02:54:51;;;;;;;12.18;3.20;;;;;;;;;;5097823;27;20047;-68
2022/08/26 02:57:18;;;;;;;14.18;2.80;;;;;;;;;;5085078;28;20051;-69
2022/08/26 02:59:44;;;;;;;13.35;3.47;;;;;;;;;;5096215;27;20041;-68
2022/08/26 03:02:11;;;;;;;12.57;2.60;;;;;;;;;;5084712;28;20086;-68
2022/08/26 03:04:37;;;;;;;17.10;3.50;;;;;;;;;;5083048;28;20583;-69
2022/08/26 03:07:04;;;;;;;18.90;2.47;;;;;;;;;;5079783;28;20047;-68
2022/08/26 03:09:30;;;;;;;19.33;2.97;;;;;;;;;;5081930;28;20044;-69
2022/08/26 03:11:57;;;;;;;12.27;2.92;;;;;;;;;;5083342;28;20036;-69
2022/08/26 03:14:23;;;;;;;13.80;2.38;;;;;;;;;;5083087;28;20047;-69
2022/08/26 03:16:51;;;;;;;17.98;2.83;;;;;;;;;;5086786;28;20362;-68
2022/08/26 03:19:17;;;;;;;13.90;3.15;;;;;;;;;;5079180;28;20181;-68
2022/08/26 03:21:43;;;;;;;10.07;2.70;;;;;;;;;;5079744;28;20470;-69
2022/08/26 03:24:10;;;;;;;19.42;2.90;;;;;;;;;;5079226;28;20048;-69
2022/08/26 03:26:36;;;;;;;11.93;2.97;;;;;;;;;;5079697;28;20076;-68
2022/08/26 03:31:48;;;;;;;15.95;3.38;;;;;;;;;;5089702;27;20067;-68
2022/08/26 03:34:15;;;;;;;15.40;3.53;;;;;;;;;;5074919;28;20157;-68
2022/08/26 03:36:42;;;;;;;14.35;3.25;;;;;;;;;;5078719;28;20752;-68
2022/08/26 03:39:08;;;;;;;15.10;4.25;;;;;;;;;;5079547;28;20044;-68
2022/08/26 03:41:35;;;;;;;15.52;4.03;;;;;;;;;;5079289;28;20580;-68
2022/08/26 03:44:02;;;;;;;18.27;4.90;;;;;;;;;;5078800;28;20044;-68
2022/08/26 03:46:30;;;;;;;16.00;3.22;;;;;;;;;;5089800;28;20490;-68
2022/08/26 03:48:56;;;;;;;16.00;3.28;;;;;;;;;;5081471;28;20051;-68
2022/08/26 03:51:22;;;;;;;18.02;2.75;;;;;;;;;;5089126;27;20382;-68
2022/08/26 03:53:49;;;;;;;16.13;3.42;;;;;;;;;;5081308;28;20054;-68
2022/08/26 03:56:15;;;;;;;14.57;2.90;;;;;;;;;;5078796;28;20052;-68
2022/08/26 03:58:43;;;;;;;13.75;2.92;;;;;;;;;;5080521;28;20471;-69
2022/08/26 04:01:10;;;;;;;13.00;3.15;;;;;;;;;;5076774;28;20052;-68
2022/08/26 04:06:21;;;;;;;14.38;3.28;;;;;;;;;;5094659;27;20123;-69
2022/08/26 04:08:48;;;;;;;16.55;3.65;;;;;;;;;;5083525;28;20043;-68
2022/08/26 04:11:17;;;;;;;21.40;3.85;;;;;;;;;;5083356;28;20107;-69
2022/08/26 04:13:43;;;;;;;15.57;3.50;;;;;;;;;;5087245;28;20110;-68
2022/08/26 04:16:10;;;;;;;19.13;3.75;;;;;;;;;;5084667;28;20115;-68
2022/08/26 04:18:37;;;;;;;17.45;3.40;;;;;;;;;;5079306;28;20083;-68
2022/08/26 04:21:05;;;;;;;15.70;3.20;;;;;;;;;;5076487;28;20047;-69
2022/08/26 04:23:31;;;;;;;11.07;3.08;;;;;;;;;;5079814;28;20143;-68
2022/08/26 04:25:57;;;;;;;14.25;2.35;;;;;;;;;;5081537;28;20044;-68
2022/08/26 04:28:23;;;;;;;13.52;2.22;;;;;;;;;;5078137;28;20040;-68
2022/08/26 04:30:49;;;;;;;9.48;2.33;;;;;;;;;;5075862;28;20043;-68
2022/08/26 04:33:16;;;;;;;13.45;3.05;;;;;;;;;;5073658;28;20032;-68
2022/08/26 04:35:42;;;;;;;13.20;2.70;;;;;;;;;;5069340;28;20077;-68
2022/08/26 04:38:09;;;;;;;16.55;2.95;;;;;;;;;;5093933;28;20046;-69
2022/08/26 04:40:36;;;;;;;13.18;2.40;;;;;;;;;;5085447;28;20552;-69
2022/08/26 04:43:04;;;;;;;12.45;2.60;;;;;;;;;;5085810;28;20482;-68
2022/08/26 04:45:30;;;;;;;14.30;2.42;;;;;;;;;;5093055;28;20486;-68
2022/08/26 04:47:56;;;;;;;14.90;2.88;;;;;;;;;;5087154;28;20775;-69
2022/08/26 04:50:24;;;;;;;14.05;2.78;;;;;;;;;;5084806;28;20124;-68
2022/08/26 04:52:50;;;;;;;12.50;2.53;;;;;;;;;;5088257;28;20036;-68
2022/08/26 04:55:17;;;;;;;11.63;3.20;;;;;;;;;;5091158;28;20036;-68
2022/08/26 04:57:43;;;;;;;8.45;2.45;;;;;;;;;;5093323;28;20164;-68
2022/08/26 05:00:11;;;;;;;15.82;2.92;;;;;;;;;;5093440;28;20122;-68
2022/08/26 05:02:37;;;;;;;10.57;2.35;;;;;;;;;;5076648;28;20383;-68
2022/08/26 05:05:06;;;;;;;13.88;2.67;;;;;;;;;;5080438;28;20110;-68
2022/08/26 05:07:33;;;;;;;14.60;2.53;;;;;;;;;;5081789;28;20040;-68
2022/08/26 05:10:00;;;;;;;12.07;3.17;;;;;;;;;;5086202;28;20091;-68
2022/08/26 05:12:27;;;;;;;14.55;2.60;;;;;;;;;;5084158;28;20101;-70
2022/08/26 05:14:53;;;;;;;12.73;3.40;;;;;;;;;;5085568;28;20110;-68
2022/08/26 05:17:20;;;;;;;14.43;2.17;;;;;;;;;;5085899;28;20050;-68
2022/08/26 05:19:47;;;;;;;15.43;2.78;;;;;;;;;;5079014;28;20586;-68
2022/08/26 05:22:13;;;;;;;12.48;2.25;;;;;;;;;;5083157;28;20070;-68
2022/08/26 05:24:42;;;;;;;11.52;2.55;;;;;;;;;;5087962;28;20358;-68
2022/08/26 05:27:08;;;;;;;14.30;2.83;;;;;;;;;;5090548;27;20122;-67
2022/08/26 05:29:34;;;;;;;15.60;2.90;;;;;;;;;;5110322;27;20600;-68
2022/08/26 05:32:01;;;;;;;18.90;2.70;;;;;;;;;;5084070;28;20044;-68
2022/08/26 05:34:27;;;;;;;30.45;3.33;;;;;;;;;;5079377;28;20064;-69
2022/08/26 05:36:53;;;;;;;17.30;3.45;;;;;;;;;;5085009;28;20032;-69
2022/08/26 05:39:22;;;;;;;20.55;3.40;;;;;;;;;;5091169;28;20562;-68
2022/08/26 05:41:49;;;;;;;17.88;3.20;;;;;;;;;;5084350;28;20475;-69
2022/08/26 05:44:17;;;;;;;14.43;3.08;;;;;;;;;;5089284;28;20492;-68
2022/08/26 05:46:44;;;;;;;12.50;2.00;;;;;;;;;;5087612;28;20039;-68
2022/08/26 05:49:11;;;;;;;15.00;2.60;;;;;;;;;;5093474;28;20088;-69
2022/08/26 05:51:38;;;;;;;20.75;3.58;;;;;;;;;;5097445;28;20116;-69
2022/08/26 05:54:05;;;;;;;16.55;3.33;;;;;;;;;;5091137;28;20042;-70
2022/08/26 05:56:32;;;;;;;19.60;3.45;;;;;;;;;;5096207;28;20050;-70
2022/08/26 05:59:01;;;;;;;16.17;3.00;;;;;;;;;;5095523;28;20089;-69
2022/08/26 06:01:28;;;;;;;16.33;3.13;;;;;;;;;;5088503;28;20066;-71
2022/08/26 06:03:57;;;;;;;16.95;2.67;;;;;;;;;;5089132;28;20474;-70
2022/08/26 06:06:24;;;;;;;15.65;2.55;;;;;;;;;;5094576;28;20047;-69
2022/08/26 06:08:51;;;;;;;18.33;3.25;;;;;;;;;;5085092;28;20077;-69
2022/08/26 06:11:19;;;;;;;18.42;2.85;;;;;;;;;;5087739;28;20100;-68
2022/08/26 06:13:45;;;;;;;15.85;2.40;;;;;;;;;;5092180;28;20040;-68
2022/08/26 06:16:13;;;;;;;20.38;3.65;;;;;;;;;;5080156;28;20048;-69
2022/08/26 06:18:40;;;;;;;12.27;1.90;;;;;;;;;;5087575;28;20048;-68
2022/08/26 06:21:13;;;;;;;16.58;3.33;;;;;;;;;;5100274;27;20040;-69
2022/08/26 06:26:24;;;;;;;15.88;2.55;;;;;;;;;;5085166;28;20496;-68
2022/08/26 06:28:51;;;;;;;12.05;1.88;;;;;;;;;;5080935;28;20123;-69
2022/08/26 06:31:17;;;;;;;16.33;2.08;;;;;;;;;;5080847;28;20052;-70
2022/08/26 06:33:44;;;;;;;17.02;2.88;;;;;;;;;;5086018;28;20066;-69
2022/08/26 06:52:10;;;;;;;12.48;2.75;;;;;;;;;;5063467;27;20505;-70
2022/08/26 06:54:41;;;;;;;13.98;2.63;;;;;;;;;;5062534;28;20059;-68
2022/08/26 06:57:08;;;;;;;16.52;1.80;;;;;;;;;;5077545;28;20075;-68
2022/08/26 06:59:34;;;;;;;15.50;2.50;;;;;;;;;;5083819;28;20028;-70
2022/08/26 07:02:01;;;;;;;11.80;2.00;;;;;;;;;;5073527;28;20480;-70
2022/08/26 07:04:27;;;;;;;15.82;2.90;;;;;;;;;;5080799;28;20036;-70
2022/08/26 07:06:53;;;;;;;17.65;2.47;;;;;;;;;;5079549;28;20435;-69
2022/08/26 07:09:21;;;;;;;12.88;1.90;;;;;;;;;;5081936;28;20055;-69
2022/08/26 07:11:47;;;;;;;11.35;1.98;;;;;;;;;;5074246;28;20068;-68
2022/08/26 07:14:13;;;;;;;9.65;2.05;;;;;;;;;;5079151;28;20441;-68
2022/08/26 07:16:40;;;;;;;13.95;2.28;;;;;;;;;;5080876;28;20392;-69
2022/08/26 07:19:06;;;;;;;11.68;1.80;;;;;;;;;;5077709;28;20114;-68
2022/08/26 07:21:32;;;;;;;18.45;3.28;;;;;;;;;;5071425;28;20052;-68
2022/08/26 07:23:59;;;;;;;12.88;1.88;;;;;;;;;;5070389;28;20041;-68
2022/08/26 07:26:26;;;;;;;11.48;2.20;;;;;;;;;;5075617;28;20048;-68
2022/08/26 07:28:53;;;;;;;15.20;2.55;;;;;;;;;;5070785;28;20083;-69
2022/08/26 07:31:21;;;;;;;13.38;2.25;;;;;;;;;;5068268;28;20364;-68
2022/08/26 07:33:47;;;;;;;13.05;2.50;;;;;;;;;;5070821;28;20064;-68
2022/08/26 07:36:14;;;;;;;13.82;2.03;;;;;;;;;;5067185;28;20085;-68
2022/08/26 07:38:43;;;;;;;15.88;2.33;;;;;;;;;;5072041;28;20051;-68
2022/08/26 07:41:09;;;;;;;12.38;1.83;;;;;;;;;;5052292;28;20063;-67
2022/08/26 07:43:36;;;;;;;14.98;2.58;;;;;;;;;;5068120;28;20033;-67
2022/08/26 07:46:03;;;;;;;8.00;1.90;;;;;;;;;;5074404;28;20050;-67
2022/08/26 07:48:30;;;;;;;11.00;2.28;;;;;;;;;;5075578;28;20094;-66
2022/08/26 07:50:56;;;;;;;11.85;2.42;;;;;;;;;;5076598;28;20167;-66
2022/08/26 07:53:22;;;;;;;13.40;1.83;;;;;;;;;;5063639;28;20087;-66
2022/08/26 07:55:49;;;;;;;14.95;2.10;;;;;;;;;;5063183;28;20044;-66
2022/08/26 07:58:15;;;;;;;11.40;2.28;;;;;;;;;;5052044;28;20044;-65
2022/08/26 08:00:41;;;;;;;13.55;1.63;;;;;;;;;;5059336;28;20537;-66
2022/08/26 08:03:08;;;;;;;14.13;1.80;;;;;;;;;;5057691;28;20037;-66
2022/08/26 08:05:35;;;;;;;10.90;2.00;;;;;;;;;;5065237;28;20052;-66
2022/08/26 08:08:03;;;;;;;8.25;1.73;;;;;;;;;;5052828;28;20056;-65
2022/08/26 08:10:29;;;;;;;8.27;1.65;;;;;;;;;;5057309;28;20055;-66
2022/08/26 08:12:56;;;;;;;11.27;1.92;;;;;;;;;;5058931;28;20044;-65
2022/08/26 08:15:25;;;;;;;9.25;1.65;;;;;;;;;;5058328;28;20057;-69
2022/08/26 08:17:51;;;;;;;11.88;1.90;;;;;;;;;;5053358;28;20076;-68
2022/08/26 08:20:18;;;;;;;8.60;1.67;;;;;;;;;;5064789;28;20075;-68
2022/08/26 08:22:44;;;;;;;8.23;1.80;;;;;;;;;;5055787;28;20088;-69
2022/08/26 08:25:11;;;;;;;17.38;2.63;;;;;;;;;;5054357;28;20053;-69
2022/08/26 08:27:38;;;;;;;8.68;1.75;;;;;;;;;;5052638;28;20047;-68
2022/08/26 08:30:05;;;;;;;10.73;2.30;;;;;;;;;;5062296;28;20054;-69
2022/08/26 08:32:31;;;;;;;10.85;2.00;;;;;;;;;;5056424;28;20049;-68
2022/08/26 08:34:58;;;;;;;16.52;2.45;;;;;;;;;;5063276;28;20045;-68
2022/08/26 08:37:25;;;;;;;13.48;2.28;;;;;;;;;;5059628;28;20089;-68
2022/08/26 08:39:51;;;;;;;14.65;2.45;;;;;;;;;;5058320;28;20045;-68
2022/08/26 08:42:37;;;;;;;17.20;2.75;;;;;;;;;;5057598;28;20040;-69
2022/08/26 08:45:07;;;;;;;18.42;2.72;;;;;;;;;;5056918;28;20138;-69
2022/08/26 08:47:36;;;;;;;19.23;2.70;;;;;;;;;;5060969;28;20075;-68
2022/08/26 08:50:11;;;;;;;16.95;2.90;;;;;;;;;;5057247;28;20167;-68
2022/08/26 08:52:38;;;;;;;11.88;2.80;;;;;;;;;;5061527;28;20075;-68
2022/08/26 08:55:05;;;;;;;15.00;2.13;;;;;;;;;;5053030;28;20050;-68
2022/08/26 08:57:41;;;;;;;14.10;2.35;;;;;;;;;;5061118;28;20091;-68
2022/08/26 09:00:10;;;;;;;15.65;2.72;;;;;;;;;;5055831;28;20404;-69
2022/08/26 09:02:42;;;;;;;11.00;1.90;;;;;;;;;;5059785;28;20083;-68
2022/08/26 09:05:14;;;;;;;10.00;1.80;;;;;;;;;;5056128;28;20048;-68
2022/08/26 09:07:44;;;;;;;11.20;2.10;;;;;;;;;;5055157;28;20060;-68
2022/08/26 09:10:10;;;;;;;15.57;3.05;;;;;;;;;;5054670;28;20068;-68
2022/08/26 09:12:36;;;;;;;11.68;2.30;;;;;;;;;;5051191;28;20506;-68
2022/08/26 09:15:07;;;;;;;14.73;2.20;;;;;;;;;;5056852;28;20442;-68
2022/08/26 09:17:47;;;;;;;14.35;2.38;;;;;;;;;;5056041;28;20507;-68
2022/08/26 09:20:28;;;;;;;20.58;2.17;;;;;;;;;;5048006;28;20135;-68
2022/08/26 09:22:56;;;;;;;13.60;2.22;;;;;;;;;;5045229;28;20175;-68
2022/08/26 09:25:22;;;;;;;11.40;1.58;;;;;;;;;;5056530;28;20139;-68
2022/08/26 09:27:50;;;;;;;10.75;1.92;;;;;;;;;;5057858;28;20613;-68
2022/08/26 09:30:28;;;;;;;11.95;1.75;;;;;;;;;;5054152;28;20033;-68
2022/08/26 09:33:02;;;;;;;9.85;1.63;;;;;;;;;;5049276;28;20045;-68
2022/08/26 09:35:30;;;;;;;10.25;1.60;;;;;;;;;;5047238;28;20048;-68
2022/08/26 09:37:57;;;;;;;4.53;1.42;;;;;;;;;;5052865;28;20075;-68
2022/08/26 09:40:29;;;;;;;7.35;1.25;;;;;;;;;;5052400;28;20466;-68
2022/08/26 09:43:06;;;;;;;5.78;1.02;;;;;;;;;;5051951;28;20483;-68
2022/08/26 09:45:32;;;;;;;7.53;1.58;;;;;;;;;;5056280;28;20045;-68
2022/08/26 09:47:59;;;;;;;8.10;1.58;;;;;;;;;;5057273;28;20075;-68
2022/08/26 09:50:30;;;;;;;8.18;1.33;;;;;;;;;;5051941;28;20052;-68
2022/08/26 09:53:07;;;;;;;7.85;1.25;;;;;;;;;;5061495;28;20135;-68
2022/08/26 09:55:33;;;;;;;8.88;1.38;;;;;;;;;;5049156;28;20045;-68
2022/08/26 09:58:00;;;;;;;12.45;1.63;;;;;;;;;;5055449;28;20054;-68
2022/08/26 10:00:28;;;;;;;7.05;1.02;;;;;;;;;;5056839;28;20404;-68
2022/08/26 10:02:55;;;;;;;10.60;1.50;;;;;;;;;;5056105;28;20041;-68
2022/08/26 10:05:30;;;;;;;10.18;1.20;;;;;;;;;;5053633;28;20132;-68
2022/08/26 10:07:56;;;;;;;8.63;1.67;;;;;;;;;;5059563;28;20090;-68
2022/08/26 10:10:25;;;;;;;7.97;1.27;;;;;;;;;;5056135;28;20048;-68
2022/08/26 10:12:55;;;;;;;11.77;1.83;;;;;;;;;;5056365;28;20056;-68
2022/08/26 10:15:23;;;;;;;13.38;2.10;;;;;;;;;;5054082;28;20401;-68
2022/08/26 10:17:53;;;;;;;8.55;1.40;;;;;;;;;;5046317;28;20033;-68
2022/08/26 10:20:23;;;;;;;6.32;1.35;;;;;;;;;;5050632;28;20044;-68
2022/08/26 10:22:58;;;;;;;8.57;1.63;;;;;;;;;;5050787;28;20052;-67
2022/08/26 10:25:27;;;;;;;6.28;1.25;;;;;;;;;;5056901;28;20131;-67
2022/08/26 10:27:59;;;;;;;9.48;1.55;;;;;;;;;;5051272;28;20041;-68
2022/08/26 10:30:29;;;;;;;7.78;1.30;;;;;;;;;;5046963;28;20652;-67
2022/08/26 10:33:04;;;;;;;12.10;1.73;;;;;;;;;;5055015;28;20041;-67
2022/08/26 10:35:30;;;;;;;7.57;1.20;;;;;;;;;;5053192;28;20471;-67
2022/08/26 10:38:00;;;;;;;10.13;1.50;;;;;;;;;;5059830;28;20117;-67
2022/08/26 10:40:27;;;;;;;7.22;1.10;;;;;;;;;;5051635;28;20047;-67
2022/08/26 10:42:57;;;;;;;6.93;1.30;;;;;;;;;;5056693;28;20086;-67
2022/08/26 10:45:28;;;;;;;10.48;1.25;;;;;;;;;;5061398;28;20395;-67
2022/08/26 10:47:55;;;;;;;7.43;1.08;;;;;;;;;;5061210;28;20041;-67
2022/08/26 10:50:23;;;;;;;7.07;1.40;;;;;;;;;;5053635;28;20127;-67
2022/08/26 10:53:03;;;;;;;6.88;1.38;;;;;;;;;;5054736;28;20105;-67
2022/08/26 10:55:30;;;;;;;5.43;1.20;;;;;;;;;;5050219;28;20104;-67
2022/08/26 10:58:00;;;;;;;8.63;1.25;;;;;;;;;;5051425;28;20348;-67
2022/08/26 11:03:28;;;;;;;5.25;0.90;;;;;;;;;;5050056;28;20048;-67
2022/08/26 11:06:13;;;;;;;9.38;1.65;;;;;;;;;;5049254;28;20116;-67
2022/08/26 11:08:47;;;;;;;10.35;1.85;;;;;;;;;;5051185;28;20068;-67
2022/08/26 11:11:33;;;;;;;13.30;1.90;;;;;;;;;;5050595;28;20082;-67
2022/08/26 11:14:01;;;;;;;10.43;1.98;;;;;;;;;;5050518;28;20048;-67
2022/08/26 11:16:35;;;;;;;5.28;1.20;;;;;;;;;;5047331;28;20049;-67
2022/08/26 11:19:01;;;;;;;7.38;1.23;;;;;;;;;;5050052;28;20048;-67
2022/08/26 11:21:43;;;;;;;8.45;1.30;;;;;;;;;;5047466;28;20056;-68
2022/08/26 11:24:10;;;;;;;5.03;1.20;;;;;;;;;;5051978;28;20045;-68
2022/08/26 11:26:36;;;;;;;15.63;1.77;;;;;;;;;;5051584;28;20059;-68
2022/08/26 11:29:03;;;;;;;10.77;2.00;;;;;;;;;;5054383;28;20448;-67
2022/08/26 11:31:29;;;;;;;9.43;1.30;;;;;;;;;;5049279;28;20165;-67
2022/08/26 11:34:01;;;;;;;12.50;1.55;;;;;;;;;;5040513;28;20060;-67
2022/08/26 11:36:34;;;;;;;7.75;1.77;;;;;;;;;;5043864;28;20480;-68
2022/08/26 11:39:03;;;;;;;14.35;1.77;;;;;;;;;;5044406;28;20049;-67
2022/08/26 11:41:30;;;;;;;10.02;1.63;;;;;;;;;;5029835;28;20110;-68
2022/08/26 11:43:58;;;;;;;7.63;1.70;;;;;;;;;;5045761;28;20048;-67
2022/08/26 11:46:27;;;;;;;8.38;1.70;;;;;;;;;;5040458;28;20051;-67
2022/08/26 11:49:04;;;;;;;9.23;2.00;;;;;;;;;;5044633;28;20034;-67
2022/08/26 11:51:30;;;;;;;12.30;1.70;;;;;;;;;;5047604;28;20099;-67
2022/08/26 11:54:13;;;;;;;7.95;1.38;;;;;;;;;;5048673;28;20088;-67
2022/08/26 11:56:41;;;;;;;7.78;1.90;;;;;;;;;;5045804;28;20048;-67
2022/08/26 11:59:08;;;;;;;6.88;1.33;;;;;;;;;;5054005;28;20071;-67
2022/08/26 12:01:38;;;;;;;8.70;1.38;;;;;;;;;;5044166;28;20435;-68
2022/08/26 12:04:06;;;;;;;7.80;1.58;;;;;;;;;;5035104;28;20132;-68
2022/08/26 12:06:45;;;;;;;10.05;1.65;;;;;;;;;;5045129;28;20566;-67
2022/08/26 12:09:14;;;;;;;9.52;1.77;;;;;;;;;;5079253;28;20063;-68
2022/08/26 12:11:40;;;;;;;8.00;1.80;;;;;;;;;;5040985;28;20049;-68
2022/08/26 12:14:08;;;;;;;9.75;1.63;;;;;;;;;;5042194;28;20076;-68
2022/08/26 12:16:37;;;;;;;9.75;1.52;;;;;;;;;;5045979;28;20036;-68
2022/08/26 12:19:24;;;;;;;7.15;1.48;;;;;;;;;;5048156;28;20040;-68
2022/08/26 12:21:51;;;;;;;8.60;1.35;;;;;;;;;;5044600;28;20126;-68
2022/08/26 12:24:18;;;;;;;8.45;1.77;;;;;;;;;;5053712;28;21524;-68
2022/08/26 12:26:44;;;;;;;7.57;1.25;;;;;;;;;;5052865;28;20117;-69
2022/08/26 12:29:24;;;;;;;8.93;1.60;;;;;;;;;;5053682;28;20055;-67
2022/08/26 12:31:51;;;;;;;6.13;1.38;;;;;;;;;;5045801;28;20060;-68
2022/08/26 12:34:18;;;;;;;26.02;1.80;;;;;;;;;;5054994;28;20111;-68
2022/08/26 12:36:53;;;;;;;9.10;1.42;;;;;;;;;;5046170;28;20037;-68
2022/08/26 12:39:34;;;;;;;6.70;1.40;;;;;;;;;;5045139;28;20040;-68
2022/08/26 12:42:02;;;;;;;9.65;1.50;;;;;;;;;;5044844;28;20056;-68
2022/08/26 12:44:44;;;;;;;6.03;1.30;;;;;;;;;;5052495;28;20135;-68
2022/08/26 12:47:21;;;;;;;7.87;1.40;;;;;;;;;;5044985;28;20127;-68
2022/08/26 12:49:48;;;;;;;9.05;1.88;;;;;;;;;;5052835;28;20041;-68
2022/08/26 12:52:29;;;;;;;4.53;1.15;;;;;;;;;;5041881;28;20061;-68
2022/08/26 12:54:58;;;;;;;9.55;1.60;;;;;;;;;;5040454;28;20592;-68
2022/08/26 12:57:25;;;;;;;8.82;1.83;;;;;;;;;;5041696;28;20410;-68
2022/08/26 12:59:51;;;;;;;8.05;1.65;;;;;;;;;;5043993;28;20048;-68
2022/08/26 13:02:34;;;;;;;10.00;1.83;;;;;;;;;;5027612;28;20057;-68
2022/08/26 13:05:01;;;;;;;7.78;1.45;;;;;;;;;;5023651;28;21852;-68
2022/08/26 13:07:27;;;;;;;8.30;1.40;;;;;;;;;;5024538;28;20048;-68
2022/08/26 13:09:54;;;;;;;15.05;1.80;;;;;;;;;;5044931;28;20036;-68
2022/08/26 13:12:23;;;;;;;8.02;1.35;;;;;;;;;;5042586;28;20052;-68
2022/08/26 13:14:49;;;;;;;9.20;1.45;;;;;;;;;;5060125;28;20057;-68
2022/08/26 13:17:16;;;;;;;13.43;1.98;;;;;;;;;;5042536;28;20186;-68
2022/08/26 13:19:42;;;;;;;9.82;1.60;;;;;;;;;;5043672;28;20045;-68
2022/08/26 13:22:11;;;;;;;12.75;2.03;;;;;;;;;;5030708;28;20526;-68
2022/08/26 13:24:39;;;;;;;7.95;1.73;;;;;;;;;;5033491;28;20176;-68
2022/08/26 13:27:06;;;;;;;9.70;2.03;;;;;;;;;;5039782;28;20127;-68
2022/08/26 13:29:33;;;;;;;10.20;1.48;;;;;;;;;;5047451;28;20044;-68
2022/08/26 13:31:59;;;;;;;8.68;1.77;;;;;;;;;;5050259;28;20069;-68
2022/08/26 13:34:26;;;;;;;9.80;1.90;;;;;;;;;;5033999;28;20092;-68
2022/08/26 13:36:53;;;;;;;7.93;1.45;;;;;;;;;;5026232;28;20057;-68
2022/08/26 13:39:20;;;;;;;5.95;1.83;;;;;;;;;;5044251;28;20111;-68
2022/08/26 13:41:47;;;;;;;9.75;1.90;;;;;;;;;;5043195;28;20045;-68
2022/08/26 13:44:13;;;;;;;8.55;1.77;;;;;;;;;;5044263;28;20044;-67
2022/08/26 13:46:40;;;;;;;8.35;1.88;;;;;;;;;;5048522;28;20103;-67
2022/08/26 13:49:06;;;;;;;7.65;1.75;;;;;;;;;;5044662;28;20081;-68
2022/08/26 13:51:33;;;;;;;7.30;1.50;;;;;;;;;;5043974;28;20055;-68
2022/08/26 13:53:59;;;;;;;8.77;1.42;;;;;;;;;;5044761;28;20197;-68
2022/08/26 13:56:28;;;;;;;7.60;1.50;;;;;;;;;;5041145;28;20044;-67
2022/08/26 13:58:55;;;;;;;6.18;1.17;;;;;;;;;;5044037;28;20499;-67
2022/08/26 14:01:21;;;;;;;5.60;1.50;;;;;;;;;;5052379;28;20085;-68
2022/08/26 14:03:47;;;;;;;9.07;1.80;;;;;;;;;;5042909;28;20691;-68
2022/08/26 14:06:14;;;;;;;8.30;1.30;;;;;;;;;;5031205;28;20041;-68
2022/08/26 14:08:40;;;;;;;12.68;1.58;;;;;;;;;;5053551;28;20032;-69
2022/08/26 14:11:06;;;;;;;10.82;1.60;;;;;;;;;;5049864;28;20044;-68
2022/08/26 14:13:32;;;;;;;7.13;1.58;;;;;;;;;;5049190;28;20054;-68
2022/08/26 14:16:00;;;;;;;7.63;1.88;;;;;;;;;;5044998;28;20521;-68
2022/08/26 14:18:29;;;;;;;10.20;1.67;;;;;;;;;;5047309;28;20448;-68
2022/08/26 14:20:56;;;;;;;6.35;1.23;;;;;;;;;;5068243;28;20052;-68
2022/08/26 14:23:22;;;;;;;10.60;1.80;;;;;;;;;;5049343;28;20045;-68
2022/08/26 14:25:48;;;;;;;6.90;1.48;;;;;;;;;;5045436;28;20499;-68
2022/08/26 14:28:14;;;;;;;10.32;1.58;;;;;;;;;;5050332;28;20509;-68
2022/08/26 14:30:41;;;;;;;13.35;1.92;;;;;;;;;;5047701;28;20076;-68
2022/08/26 14:33:10;;;;;;;8.40;1.58;;;;;;;;;;5046152;28;20344;-68
2022/08/26 14:35:36;;;;;;;5.40;1.30;;;;;;;;;;5069570;28;20057;-68
2022/08/26 14:38:02;;;;;;;5.70;1.63;;;;;;;;;;5047460;28;20157;-68
2022/08/26 14:40:30;;;;;;;9.13;1.25;;;;;;;;;;5044601;28;20029;-68
2022/08/26 14:42:56;;;;;;;9.13;1.38;;;;;;;;;;5033257;28;20053;-68
2022/08/26 14:45:24;;;;;;;7.18;1.55;;;;;;;;;;5039814;28;20044;-68
2022/08/26 14:47:50;;;;;;;6.03;1.38;;;;;;;;;;5043986;28;20056;-68
2022/08/26 14:50:19;;;;;;;9.60;2.10;;;;;;;;;;5045286;28;20164;-68
2022/08/26 14:55:31;;;;;;;10.50;1.80;;;;;;;;;;5038332;28;20065;-67
2022/08/26 14:57:58;;;;;;;6.95;1.42;;;;;;;;;;5044725;28;20409;-68
2022/08/26 15:00:24;;;;;;;8.45;1.73;;;;;;;;;;5042715;28;20153;-68
2022/08/26 15:02:50;;;;;;;11.85;1.88;;;;;;;;;;5051299;28;20036;-68
2022/08/26 15:05:16;;;;;;;13.00;2.47;;;;;;;;;;5058138;28;20045;-68
2022/08/26 15:07:43;;;;;;;10.35;1.75;;;;;;;;;;5050442;28;20400;-68